Sedgwick Reserve, California Weather observations

Data are for 10 minute period ending at time listed.
 Day   Time   Solar   Ave.   Ave.  Ave.  Vector  Max.   Baro.   Total    
  of    of     Rad.   Air    Rel.  Wind   Wind   Wind  Press.  Precip.   
Year   Day            Temp.  Hum.  Speed  Dir.   Gust                    
2024   (PST)  Kw/m2    F      %     mph   deg.    mph    mb.     in.     
-------------------------------------------------------------------------
 150   11:50   0.96   75.6    44    9.4   283    15.9   975.5    0.00 
 150   12:00   0.96   75.7    43   11.7   287    19.8   975.5    0.00 
 150   12:10   0.96   74.8    44   14.1   281    21.7   975.4    0.00 
 150   12:20   0.96   74.9    44   14.6   277    23.0   975.4    0.00 
 150   12:30   0.95   76.7    42    9.7   297    17.2   975.4    0.00 
 150   12:40   0.95   76.4    42   12.2   285    21.0   975.3    0.00 
 150   12:50   0.95   76.6    42   12.8   305    22.8   975.2    0.00 
 150   13:00   0.94   75.0    42   15.5   291    24.5   975.2    0.00 
 150   13:10   0.93   75.0    40   15.9   296    26.4   975.1    0.00 
 150   13:20   0.92   74.4    40   15.9   286    23.2   975.0    0.00 
 150   13:30   0.91   74.7    39   15.0   284    27.2   974.9    0.00 
 150   13:40   0.89   74.9    38   14.3   276    21.3   974.8    0.00 
 150   13:50   0.88   75.1    37   14.8   269    25.1   974.8    0.00 
 150   14:00   0.86   75.0    37   14.0   270    23.2   974.8    0.00 
 150   14:10   0.85   74.1    39   16.3   267    27.0   974.8    0.00 
 150   14:20   0.83   74.3    39   15.6   270    25.9   974.8    0.00 
 150   14:30   0.81   73.6    40   15.8   270    23.0   974.7    0.00 
 150   14:40   0.79   73.7    40   15.2   281    25.9   974.7    0.00 
 150   14:50   0.76   73.2    40   16.9   276    23.5   974.6    0.00 
 150   15:00   0.74   73.6    40   13.0   278    23.6   974.6    0.00 
 150   15:10   0.71   74.5    40   12.3   273    19.5   974.5    0.00 
 150   15:20   0.69   74.1    41   12.1   278    18.6   974.6    0.00 
 150   15:30   0.66   74.5    41   11.8   282    19.7   974.5    0.00 
 150   15:40   0.63   74.4    40   12.6   286    21.1   974.5    0.00 
 150   15:50   0.60   73.4    40   13.2   279    20.2   974.5    0.00 
 150   16:00   0.57   73.0    38   12.1   273    21.4   974.5    0.00 
 150   16:10   0.54   72.8    38   11.8   282    19.5   974.5    0.00 
 150   16:20   0.51   72.9    38   10.6   282    21.8   974.4    0.00 
 150   16:30   0.48   73.0    34   10.8   291    18.6   974.4    0.00 
 150   16:40   0.44   72.6    36   10.6   282    16.1   974.3    0.00 
 150   16:50   0.41   71.9    36   10.0   281    16.5   974.2    0.00 
 150   17:00   0.38   72.1    36   10.9   287    17.7   974.1    0.00 
 150   17:10   0.34   71.5    38   10.7   284    17.4   974.0    0.00 
 150   17:20   0.31   71.9    40    7.1   281    11.8   974.1    0.00 
 150   17:30   0.27   71.0    43    8.7   284    15.1   974.1    0.00 
 150   17:40   0.24   70.2    45    8.1   285    12.1   974.0    0.00 
 150   17:50   0.20   69.6    47    6.3   276    11.0   973.9    0.00 
 150   18:00   0.17   69.2    49    5.6   276     9.3   973.9    0.00 
 150   18:10   0.14   68.3    51    6.3   274    10.4   973.9    0.00 
 150   18:20   0.11   66.9    54    7.1   266     9.4   973.9    0.00 
 150   18:30   0.08   66.3    56    4.8   262     7.5   973.9    0.00 
 150   18:40   0.05   65.4    59    4.2   206    10.5   974.1    0.00 
 150   18:50   0.03   60.4    71    6.0   141     9.4   974.2    0.00 
 150   19:00   0.01   58.2    76    4.6   134     9.2   974.3    0.00 
 150   19:10   0.01   57.2    78    3.9   136     6.8   974.4    0.00 
 150   19:20   0.00   56.6    80    3.1   124     5.4   974.4    0.00 
 150   19:30   0.00   55.8    81    3.2   138     5.3   974.4    0.00 
 150   19:40   0.00   55.1    83    2.4   119     5.0   974.5    0.00 
 150   19:50   0.00   54.5    84    1.9    84     3.4   974.5    0.00 
 150   20:00   0.00   54.2    85    1.6   105     2.5   974.6    0.00 
 150   20:10   0.00   53.9    86    1.2    81     2.0   974.7    0.00 
 150   20:20   0.00   53.6    86    1.3    26     2.3   974.7    0.00 
 150   20:30   0.00   52.9    86    1.3    16     3.3   974.6    0.00 
 150   20:40   0.00   51.9    88    2.1   354     3.4   974.6    0.00 
 150   20:50   0.00   51.4    88    1.5     2     2.6   974.6    0.00 
 150   21:00   0.00   50.9    89    1.2   335     2.8   974.7    0.00 
 150   21:10   0.00   50.2    90    1.6     9     4.1   974.8    0.00 
 150   21:20   0.00   49.9    90    1.6   314     3.6   974.8    0.00 
 150   21:30   0.00   49.5    91    0.7   202     2.5   974.9    0.00 
 150   21:40   0.00   49.3    91    1.1   344     4.2   974.9    0.00 
 150   21:50   0.00   48.5    92    2.2    10     7.4   974.9    0.00 
 150   22:00   0.00   48.3    93    1.2   288     2.8   974.8    0.00 
 150   22:10   0.00   48.1    93    2.2    12     4.6   974.7    0.00 
 150   22:20   0.00   47.8    94    3.0   326     5.2   974.7    0.00 
 150   22:30   0.00   47.5    94    2.3     0     6.6   974.8    0.00 
 150   22:40   0.00   47.6    95    1.7    13     4.2   974.8    0.00 
 150   22:50   0.00   47.8    95    2.0   347     4.4   974.8    0.00 
 150   23:00   0.00   47.1    95    2.8   360     5.0   974.8    0.00 
 150   23:10   0.00   47.1    95    2.3   338     3.4   974.8    0.00 
 150   23:20   0.00   47.3    96    1.9   327     3.5   974.8    0.00 
 150   23:30   0.00   47.2    96    2.1   330     4.9   974.7    0.00 
 150   23:40   0.00   47.5    96    1.3   279     3.7   974.6    0.00 
 150   23:50   0.00   47.6    95    1.4   299     3.3   974.5    0.00 
 151    0:00   0.00   47.4    96    1.9   320     4.8   974.4    0.00 
 151    0:10   0.00   47.5    96    2.3     7     5.0   974.4    0.00 
 151    0:20   0.00   47.5    96    1.2   256     3.8   974.3    0.00 
 151    0:30   0.00   46.9    96    1.7   330     4.5   974.3    0.00 
 151    0:40   0.00   46.8    97    2.2   350     5.5   974.2    0.00 
 151    0:50   0.00   47.0    97    2.3   308     4.5   974.2    0.00 
 151    1:00   0.00   47.1    97    1.8     6     4.7   974.1    0.00 
 151    1:10   0.00   47.2    96    1.7   338     4.2   974.1    0.00 
 151    1:20   0.00   46.5    97    1.4   286     3.1   973.9    0.00 
 151    1:30   0.00   46.3    97    1.8   347     4.4   973.9    0.00 
 151    1:40   0.00   46.3    97    2.3     8     5.1   973.8    0.00 
 151    1:50   0.00   47.0    98    1.8   360     3.7   973.8    0.00 
 151    2:00   0.00   46.7    97    3.1     6     5.7   973.7    0.00 
 151    2:10   0.00   47.2    98    1.2   318     3.7   973.6    0.00 
 151    2:20   0.00   46.8    97    1.9   308     3.9   973.4    0.00 
 151    2:30   0.00   46.9    97    1.1    85     3.7   973.4    0.00 
 151    2:40   0.00   47.2    98    1.7   276     3.4   973.3    0.00 
 151    2:50   0.00   46.7    97    1.5    56     4.1   973.4    0.00 
 151    3:00   0.00   46.0    97    3.1   328     5.7   973.3    0.00 
 151    3:10   0.00   45.6    98    2.7   330     5.7   973.3    0.00 
 151    3:20   0.00   46.0    98    2.0    13     4.1   973.3    0.00 
 151    3:30   0.00   46.5    98    3.0   341     5.3   973.2    0.00 
 151    3:40   0.00   46.3    97    2.8    12     5.5   973.3    0.00 
 151    3:50   0.00   46.1    98    2.0   341     3.7   973.2    0.00 
 151    4:00   0.00   45.8    98    3.0   353     5.8   973.3    0.00 
 151    4:10   0.00   45.9    98    2.9   325     5.4   973.2    0.00 
 151    4:20   0.00   46.6    98    1.9   342     4.9   973.2    0.00 
 151    4:30   0.00   46.5    98    2.1   300     5.3   973.1    0.00 
 151    4:40   0.00   46.6    98    2.8   307     6.3   973.1    0.00 
 151    4:50   0.00   46.4    98    2.6   300     5.5   973.2    0.00 
 151    5:00   0.01   46.7    98    1.5   344     4.7   973.3    0.00 
 151    5:10   0.01   47.3    98    2.0   273     3.9   973.3    0.00 
 151    5:20   0.02   46.6    98    1.3    54     3.5   973.4    0.00 
 151    5:30   0.03   46.8    98    1.4   346     3.8   973.5    0.00 
 151    5:40   0.03   47.2    98    1.9    12     4.2   973.6    0.00 
 151    5:50   0.05   48.3    98    1.3   317     3.0   973.6    0.00 
 151    6:00   0.15   49.3    97    1.4    33     3.5   973.7    0.00 
 151    6:10   0.19   50.6    96    1.0    20     2.0   973.7    0.00 
 151    6:20   0.22   52.0    94    1.1   272     3.2   973.7    0.00 
 151    6:30   0.25   54.0    91    2.0   240     3.7   973.7    0.00 
 151    6:40   0.29   56.2    87    1.0   156     3.0   973.7    0.00 
 151    6:50   0.33   58.0    81    1.7   151     3.3   973.7    0.00 
 151    7:00   0.36   59.8    79    2.3    98     4.9   973.8    0.00 
 151    7:10   0.39   60.9    76    2.7   112     5.9   973.8    0.00 
 151    7:20   0.43   61.5    74    2.1   111     5.6   973.8    0.00 
 151    7:30   0.46   62.4    72    1.7   118     4.0   973.8    0.00 
 151    7:40   0.49   62.7    69    2.4   150     4.6   973.8    0.00 
 151    7:50   0.53   63.6    68    2.7   135     5.8   973.8    0.00 
 151    8:00   0.56   64.9    67    2.4   144     4.9   973.8    0.00 
 151    8:10   0.59   65.4    65    3.8   146     6.4   973.9    0.00 
 151    8:20   0.62   66.0    64    3.8   134     5.8   973.9    0.00 
 151    8:30   0.65   67.3    61    3.4   127     6.0   973.8    0.00 
 151    8:40   0.68   69.1    57    3.4   135     6.1   973.7    0.00 
 151    8:50   0.71   70.2    54    2.5   119     6.1   973.6    0.00 
 151    9:00   0.73   71.5    53    3.3   133     6.2   973.6    0.00 
 151    9:10   0.76   71.4    54    3.8   126     6.5   973.7    0.00 
 151    9:20   0.78   72.2    53    3.2   129     6.7   973.6    0.00 
 151    9:30   0.81   73.8    51    3.3   142     5.9   973.7    0.00 
 151    9:40   0.83   74.7    49    3.7   149     6.7   973.6    0.00 
 151    9:50   0.84   75.6    47    2.8   153     6.1   973.6    0.00 
 151   10:00   0.87   77.3    45    3.1   147     7.0   973.5    0.00 
 151   10:10   0.88   77.8    43    3.3   163     6.4   973.6    0.00 
 151   10:20   0.90   79.0    42    3.3   163     7.2   973.5    0.00 
 151   10:30   0.91   79.9    44    4.0   187     9.6   973.5    0.00 
 151   10:40   0.92   79.3    45    7.1   214    13.2   973.4    0.00 
 151   10:50   0.93   78.9    45    6.8   252    12.0   973.3    0.00 
 151   11:00   0.94   78.3    46    7.3   222    12.8   973.3    0.00 
 151   11:10   0.94   78.3    46    7.8   197    14.0   973.2    0.00 
 151   11:20   0.95   78.2    47    8.7   243    16.4   973.1    0.00 
 151   11:30   0.92   78.5    47    8.2   247    15.1   973.1    0.00 
 151   11:40   0.96   77.8    48    9.1   226    15.9   973.1    0.00 

Return to Sedgwick Reserve graphs page.


Western Regional Climate Center,wrcc@dri.edu